sensor_id;sensor_type;location;lat;lon;timestamp;P1;durP1;ratioP1;P2;durP2;ratioP2
26062;SDS011;13837;48.562;12.108;2022-10-17T00:01:43;16.10;;;11.73;;
26062;SDS011;13837;48.562;12.108;2022-10-17T00:04:09;15.98;;;11.65;;
26062;SDS011;13837;48.562;12.108;2022-10-17T00:06:35;19.45;;;12.15;;
26062;SDS011;13837;48.562;12.108;2022-10-17T00:09:01;19.90;;;11.40;;
26062;SDS011;13837;48.562;12.108;2022-10-17T00:11:27;19.00;;;12.35;;
26062;SDS011;13837;48.562;12.108;2022-10-17T00:13:53;20.23;;;11.55;;
26062;SDS011;13837;48.562;12.108;2022-10-17T00:16:25;17.42;;;11.90;;
26062;SDS011;13837;48.562;12.108;2022-10-17T00:18:53;16.15;;;11.68;;
26062;SDS011;13837;48.562;12.108;2022-10-17T00:21:19;16.30;;;12.02;;
26062;SDS011;13837;48.562;12.108;2022-10-17T00:23:47;18.02;;;12.13;;
26062;SDS011;13837;48.562;12.108;2022-10-17T00:26:13;16.83;;;12.15;;
26062;SDS011;13837;48.562;12.108;2022-10-17T00:28:40;19.83;;;11.90;;
26062;SDS011;13837;48.562;12.108;2022-10-17T00:31:09;16.15;;;10.77;;
26062;SDS011;13837;48.562;12.108;2022-10-17T00:33:34;17.85;;;12.02;;
26062;SDS011;13837;48.562;12.108;2022-10-17T00:36:01;21.70;;;11.90;;
26062;SDS011;13837;48.562;12.108;2022-10-17T00:38:54;18.40;;;12.40;;
26062;SDS011;13837;48.562;12.108;2022-10-17T00:41:22;21.25;;;11.73;;
26062;SDS011;13837;48.562;12.108;2022-10-17T00:46:28;15.52;;;12.43;;
26062;SDS011;13837;48.562;12.108;2022-10-17T00:49:02;17.08;;;12.18;;
26062;SDS011;13837;48.562;12.108;2022-10-17T00:51:55;16.73;;;12.60;;
26062;SDS011;13837;48.562;12.108;2022-10-17T00:54:33;16.35;;;12.65;;
26062;SDS011;13837;48.562;12.108;2022-10-17T00:57:03;19.35;;;12.60;;
26062;SDS011;13837;48.562;12.108;2022-10-17T00:59:31;19.65;;;12.57;;
26062;SDS011;13837;48.562;12.108;2022-10-17T01:02:00;23.27;;;12.80;;
26062;SDS011;13837;48.562;12.108;2022-10-17T01:04:31;17.27;;;13.15;;
26062;SDS011;13837;48.562;12.108;2022-10-17T01:06:57;20.42;;;12.48;;
26062;SDS011;13837;48.562;12.108;2022-10-17T01:09:23;19.80;;;13.13;;
26062;SDS011;13837;48.562;12.108;2022-10-17T01:17:39;17.92;;;11.50;;
26062;SDS011;13837;48.562;12.108;2022-10-17T01:26:04;13.13;;;11.60;;
26062;SDS011;13837;48.562;12.108;2022-10-17T01:28:46;18.70;;;11.90;;
26062;SDS011;13837;48.562;12.108;2022-10-17T01:31:21;12.35;;;10.95;;
26062;SDS011;13837;48.562;12.108;2022-10-17T01:39:05;15.50;;;11.05;;
26062;SDS011;13837;48.562;12.108;2022-10-17T01:44:12;11.50;;;10.30;;
26062;SDS011;13837;48.562;12.108;2022-10-17T01:47:05;12.80;;;10.37;;
26062;SDS011;13837;48.562;12.108;2022-10-17T01:49:34;13.38;;;10.43;;
26062;SDS011;13837;48.562;12.108;2022-10-17T01:52:13;11.68;;;10.45;;
26062;SDS011;13837;48.562;12.108;2022-10-17T01:54:45;11.63;;;10.52;;
26062;SDS011;13837;48.562;12.108;2022-10-17T01:57:27;12.57;;;10.30;;
26062;SDS011;13837;48.562;12.108;2022-10-17T01:59:57;11.23;;;9.95;;
26062;SDS011;13837;48.562;12.108;2022-10-17T02:02:24;11.20;;;9.82;;
26062;SDS011;13837;48.562;12.108;2022-10-17T02:04:51;11.73;;;10.43;;
26062;SDS011;13837;48.562;12.108;2022-10-17T02:07:19;11.05;;;9.77;;
26062;SDS011;13837;48.562;12.108;2022-10-17T02:09:45;11.57;;;9.88;;
26062;SDS011;13837;48.562;12.108;2022-10-17T02:22:37;10.82;;;9.35;;
26062;SDS011;13837;48.562;12.108;2022-10-17T02:25:15;11.02;;;9.80;;
26062;SDS011;13837;48.562;12.108;2022-10-17T02:33:14;13.07;;;8.98;;
26062;SDS011;13837;48.562;12.108;2022-10-17T02:35:48;9.80;;;8.87;;
26062;SDS011;13837;48.562;12.108;2022-10-17T02:38:17;13.52;;;9.80;;
26062;SDS011;13837;48.562;12.108;2022-10-17T02:40:45;9.55;;;8.63;;
26062;SDS011;13837;48.562;12.108;2022-10-17T02:43:14;10.27;;;9.30;;
26062;SDS011;13837;48.562;12.108;2022-10-17T02:45:40;10.73;;;9.73;;
26062;SDS011;13837;48.562;12.108;2022-10-17T02:48:11;10.60;;;9.35;;
26062;SDS011;13837;48.562;12.108;2022-10-17T02:51:06;10.95;;;9.85;;
26062;SDS011;13837;48.562;12.108;2022-10-17T02:54:32;9.85;;;8.95;;
26062;SDS011;13837;48.562;12.108;2022-10-17T02:59:06;10.43;;;9.13;;
26062;SDS011;13837;48.562;12.108;2022-10-17T03:01:36;13.32;;;9.50;;
26062;SDS011;13837;48.562;12.108;2022-10-17T03:04:20;10.23;;;9.25;;
26062;SDS011;13837;48.562;12.108;2022-10-17T03:06:46;9.95;;;8.95;;
26062;SDS011;13837;48.562;12.108;2022-10-17T03:09:14;11.93;;;8.88;;
26062;SDS011;13837;48.562;12.108;2022-10-17T03:11:40;9.85;;;8.95;;
26062;SDS011;13837;48.562;12.108;2022-10-17T03:14:07;11.93;;;9.38;;
26062;SDS011;13837;48.562;12.108;2022-10-17T03:16:32;11.25;;;10.10;;
26062;SDS011;13837;48.562;12.108;2022-10-17T03:18:58;11.82;;;9.90;;
26062;SDS011;13837;48.562;12.108;2022-10-17T03:21:24;10.38;;;9.35;;
26062;SDS011;13837;48.562;12.108;2022-10-17T03:23:50;12.63;;;10.10;;
26062;SDS011;13837;48.562;12.108;2022-10-17T03:26:18;10.20;;;9.35;;
26062;SDS011;13837;48.562;12.108;2022-10-17T03:28:43;11.00;;;9.88;;
26062;SDS011;13837;48.562;12.108;2022-10-17T03:31:10;11.70;;;10.60;;
26062;SDS011;13837;48.562;12.108;2022-10-17T03:33:39;12.23;;;10.93;;
26062;SDS011;13837;48.562;12.108;2022-10-17T03:36:07;11.98;;;10.77;;
26062;SDS011;13837;48.562;12.108;2022-10-17T03:38:37;11.00;;;9.68;;
26062;SDS011;13837;48.562;12.108;2022-10-17T03:41:04;12.55;;;10.13;;
26062;SDS011;13837;48.562;12.108;2022-10-17T03:43:31;21.80;;;12.88;;
26062;SDS011;13837;48.562;12.108;2022-10-17T03:45:57;16.77;;;12.32;;
26062;SDS011;13837;48.562;12.108;2022-10-17T03:48:24;20.73;;;13.70;;
26062;SDS011;13837;48.562;12.108;2022-10-17T03:50:51;20.05;;;13.30;;
26062;SDS011;13837;48.562;12.108;2022-10-17T03:53:22;26.27;;;15.02;;
26062;SDS011;13837;48.562;12.108;2022-10-17T03:55:48;40.40;;;16.10;;
26062;SDS011;13837;48.562;12.108;2022-10-17T03:58:14;39.90;;;15.63;;
26062;SDS011;13837;48.562;12.108;2022-10-17T04:00:39;31.48;;;14.30;;
26062;SDS011;13837;48.562;12.108;2022-10-17T04:03:05;38.42;;;14.85;;
26062;SDS011;13837;48.562;12.108;2022-10-17T04:05:31;41.78;;;14.85;;
26062;SDS011;13837;48.562;12.108;2022-10-17T04:07:57;30.60;;;14.35;;
26062;SDS011;13837;48.562;12.108;2022-10-17T04:10:39;24.13;;;13.65;;
26062;SDS011;13837;48.562;12.108;2022-10-17T04:13:05;40.80;;;15.23;;
26062;SDS011;13837;48.562;12.108;2022-10-17T04:15:31;34.67;;;16.00;;
26062;SDS011;13837;48.562;12.108;2022-10-17T04:17:57;54.90;;;17.65;;
26062;SDS011;13837;48.562;12.108;2022-10-17T04:20:22;30.02;;;17.30;;
26062;SDS011;13837;48.562;12.108;2022-10-17T04:22:49;25.20;;;15.63;;
26062;SDS011;13837;48.562;12.108;2022-10-17T04:25:14;25.10;;;15.15;;
26062;SDS011;13837;48.562;12.108;2022-10-17T04:27:43;21.35;;;15.82;;
26062;SDS011;13837;48.562;12.108;2022-10-17T04:30:09;18.70;;;14.23;;
26062;SDS011;13837;48.562;12.108;2022-10-17T04:32:36;19.60;;;13.57;;
26062;SDS011;13837;48.562;12.108;2022-10-17T04:35:17;16.75;;;13.55;;
26062;SDS011;13837;48.562;12.108;2022-10-17T04:37:48;16.77;;;13.52;;
26062;SDS011;13837;48.562;12.108;2022-10-17T04:42:44;15.32;;;13.50;;
26062;SDS011;13837;48.562;12.108;2022-10-17T04:45:12;18.73;;;14.07;;
26062;SDS011;13837;48.562;12.108;2022-10-17T04:47:39;14.52;;;13.02;;
26062;SDS011;13837;48.562;12.108;2022-10-17T04:50:05;14.70;;;12.68;;
26062;SDS011;13837;48.562;12.108;2022-10-17T04:52:36;15.60;;;14.00;;
26062;SDS011;13837;48.562;12.108;2022-10-17T04:55:03;14.32;;;12.82;;
26062;SDS011;13837;48.562;12.108;2022-10-17T04:57:29;14.88;;;13.27;;
26062;SDS011;13837;48.562;12.108;2022-10-17T05:00:05;15.77;;;12.48;;
26062;SDS011;13837;48.562;12.108;2022-10-17T05:02:52;14.50;;;12.07;;
26062;SDS011;13837;48.562;12.108;2022-10-17T05:05:18;13.65;;;12.05;;
26062;SDS011;13837;48.562;12.108;2022-10-17T05:07:52;13.57;;;12.17;;
26062;SDS011;13837;48.562;12.108;2022-10-17T05:10:22;13.50;;;11.50;;
26062;SDS011;13837;48.562;12.108;2022-10-17T05:12:50;13.45;;;11.35;;
26062;SDS011;13837;48.562;12.108;2022-10-17T05:15:19;13.95;;;12.27;;
26062;SDS011;13837;48.562;12.108;2022-10-17T05:17:44;14.48;;;12.45;;
26062;SDS011;13837;48.562;12.108;2022-10-17T05:20:11;12.52;;;11.38;;
26062;SDS011;13837;48.562;12.108;2022-10-17T05:22:37;14.43;;;12.05;;
26062;SDS011;13837;48.562;12.108;2022-10-17T05:25:03;13.07;;;11.82;;
26062;SDS011;13837;48.562;12.108;2022-10-17T05:27:30;14.02;;;12.60;;
26062;SDS011;13837;48.562;12.108;2022-10-17T05:29:56;14.00;;;12.48;;
26062;SDS011;13837;48.562;12.108;2022-10-17T05:32:26;16.50;;;12.75;;
26062;SDS011;13837;48.562;12.108;2022-10-17T05:34:52;15.23;;;11.88;;
26062;SDS011;13837;48.562;12.108;2022-10-17T05:37:19;14.05;;;12.60;;
26062;SDS011;13837;48.562;12.108;2022-10-17T05:39:48;14.00;;;11.52;;
26062;SDS011;13837;48.562;12.108;2022-10-17T05:42:14;13.27;;;11.85;;
26062;SDS011;13837;48.562;12.108;2022-10-17T05:44:40;13.32;;;11.93;;
26062;SDS011;13837;48.562;12.108;2022-10-17T05:47:07;13.30;;;11.70;;
26062;SDS011;13837;48.562;12.108;2022-10-17T05:49:33;14.27;;;11.98;;
26062;SDS011;13837;48.562;12.108;2022-10-17T05:51:59;16.13;;;12.90;;
26062;SDS011;13837;48.562;12.108;2022-10-17T05:54:26;15.82;;;13.02;;
26062;SDS011;13837;48.562;12.108;2022-10-17T05:56:52;24.63;;;13.93;;
26062;SDS011;13837;48.562;12.108;2022-10-17T05:59:25;24.08;;;14.32;;
26062;SDS011;13837;48.562;12.108;2022-10-17T06:01:59;35.25;;;14.20;;
26062;SDS011;13837;48.562;12.108;2022-10-17T06:04:25;34.80;;;15.73;;
26062;SDS011;13837;48.562;12.108;2022-10-17T06:06:52;32.40;;;16.00;;
26062;SDS011;13837;48.562;12.108;2022-10-17T06:09:21;35.95;;;16.90;;
26062;SDS011;13837;48.562;12.108;2022-10-17T06:11:50;41.45;;;16.77;;
26062;SDS011;13837;48.562;12.108;2022-10-17T06:14:16;30.42;;;18.35;;
26062;SDS011;13837;48.562;12.108;2022-10-17T06:16:42;27.05;;;17.38;;
26062;SDS011;13837;48.562;12.108;2022-10-17T06:19:08;27.27;;;18.58;;
26062;SDS011;13837;48.562;12.108;2022-10-17T06:21:35;29.48;;;20.48;;
26062;SDS011;13837;48.562;12.108;2022-10-17T06:24:11;60.30;;;23.20;;
26062;SDS011;13837;48.562;12.108;2022-10-17T06:26:39;50.65;;;21.67;;
26062;SDS011;13837;48.562;12.108;2022-10-17T06:29:06;31.25;;;20.27;;
26062;SDS011;13837;48.562;12.108;2022-10-17T06:31:37;37.13;;;19.70;;
26062;SDS011;13837;48.562;12.108;2022-10-17T06:34:02;36.10;;;20.42;;
26062;SDS011;13837;48.562;12.108;2022-10-17T06:36:28;73.03;;;21.55;;
26062;SDS011;13837;48.562;12.108;2022-10-17T06:38:54;56.05;;;20.90;;
26062;SDS011;13837;48.562;12.108;2022-10-17T06:41:31;170.20;;;26.63;;
26062;SDS011;13837;48.562;12.108;2022-10-17T06:44:03;55.28;;;22.25;;
26062;SDS011;13837;48.562;12.108;2022-10-17T06:46:50;60.65;;;22.70;;
26062;SDS011;13837;48.562;12.108;2022-10-17T06:49:16;37.63;;;21.23;;
26062;SDS011;13837;48.562;12.108;2022-10-17T06:51:47;69.00;;;23.15;;
26062;SDS011;13837;48.562;12.108;2022-10-17T06:54:16;64.47;;;23.55;;
26062;SDS011;13837;48.562;12.108;2022-10-17T06:57:07;38.65;;;21.23;;
26062;SDS011;13837;48.562;12.108;2022-10-17T06:59:50;40.63;;;20.73;;
26062;SDS011;13837;48.562;12.108;2022-10-17T07:02:21;31.95;;;20.70;;
26062;SDS011;13837;48.562;12.108;2022-10-17T07:04:49;30.20;;;20.20;;
26062;SDS011;13837;48.562;12.108;2022-10-17T07:07:14;30.20;;;20.15;;
26062;SDS011;13837;48.562;12.108;2022-10-17T07:09:40;30.92;;;19.27;;
26062;SDS011;13837;48.562;12.108;2022-10-17T07:12:07;49.97;;;18.42;;
26062;SDS011;13837;48.562;12.108;2022-10-17T07:14:33;30.23;;;18.05;;
26062;SDS011;13837;48.562;12.108;2022-10-17T07:17:00;33.38;;;17.77;;
26062;SDS011;13837;48.562;12.108;2022-10-17T07:19:28;49.10;;;18.00;;
26062;SDS011;13837;48.562;12.108;2022-10-17T07:21:54;47.72;;;19.38;;
26062;SDS011;13837;48.562;12.108;2022-10-17T07:24:20;68.13;;;19.67;;
26062;SDS011;13837;48.562;12.108;2022-10-17T07:27:02;28.73;;;18.90;;
26062;SDS011;13837;48.562;12.108;2022-10-17T07:29:28;31.35;;;18.60;;
26062;SDS011;13837;48.562;12.108;2022-10-17T07:32:06;78.63;;;18.92;;
26062;SDS011;13837;48.562;12.108;2022-10-17T07:34:33;26.25;;;17.60;;
26062;SDS011;13837;48.562;12.108;2022-10-17T07:36:59;58.05;;;19.08;;
26062;SDS011;13837;48.562;12.108;2022-10-17T07:39:26;96.05;;;20.83;;
26062;SDS011;13837;48.562;12.108;2022-10-17T07:41:52;66.60;;;20.75;;
26062;SDS011;13837;48.562;12.108;2022-10-17T07:44:17;63.15;;;19.38;;
26062;SDS011;13837;48.562;12.108;2022-10-17T07:46:47;23.80;;;16.52;;
26062;SDS011;13837;48.562;12.108;2022-10-17T07:49:16;27.17;;;18.55;;
26062;SDS011;13837;48.562;12.108;2022-10-17T07:51:42;29.90;;;16.75;;
26062;SDS011;13837;48.562;12.108;2022-10-17T07:54:07;57.83;;;19.63;;
26062;SDS011;13837;48.562;12.108;2022-10-17T07:56:33;23.50;;;18.08;;
26062;SDS011;13837;48.562;12.108;2022-10-17T07:58:59;41.63;;;18.67;;
26062;SDS011;13837;48.562;12.108;2022-10-17T08:01:24;25.05;;;17.92;;
26062;SDS011;13837;48.562;12.108;2022-10-17T08:03:52;21.20;;;16.85;;
26062;SDS011;13837;48.562;12.108;2022-10-17T08:06:17;24.63;;;17.55;;
26062;SDS011;13837;48.562;12.108;2022-10-17T08:08:43;20.90;;;16.27;;
26062;SDS011;13837;48.562;12.108;2022-10-17T08:11:10;20.08;;;15.50;;
26062;SDS011;13837;48.562;12.108;2022-10-17T08:13:36;18.80;;;14.65;;
26062;SDS011;13837;48.562;12.108;2022-10-17T08:16:06;18.80;;;12.93;;
26062;SDS011;13837;48.562;12.108;2022-10-17T08:18:34;14.68;;;11.95;;
26062;SDS011;13837;48.562;12.108;2022-10-17T08:21:02;17.92;;;13.23;;
26062;SDS011;13837;48.562;12.108;2022-10-17T08:23:30;15.45;;;12.60;;
26062;SDS011;13837;48.562;12.108;2022-10-17T08:26:00;16.30;;;11.80;;
26062;SDS011;13837;48.562;12.108;2022-10-17T08:28:27;15.40;;;12.18;;
26062;SDS011;13837;48.562;12.108;2022-10-17T08:31:00;15.50;;;11.93;;
26062;SDS011;13837;48.562;12.108;2022-10-17T08:36:40;18.17;;;13.30;;
26062;SDS011;13837;48.562;12.108;2022-10-17T08:39:11;15.68;;;12.50;;
26062;SDS011;13837;48.562;12.108;2022-10-17T08:44:48;13.30;;;11.23;;
26062;SDS011;13837;48.562;12.108;2022-10-17T08:47:37;10.88;;;9.85;;
26062;SDS011;13837;48.562;12.108;2022-10-17T08:50:06;11.02;;;8.65;;
26062;SDS011;13837;48.562;12.108;2022-10-17T08:58:16;11.75;;;9.25;;
26062;SDS011;13837;48.562;12.108;2022-10-17T09:00:45;11.90;;;8.73;;
26062;SDS011;13837;48.562;12.108;2022-10-17T09:03:42;9.50;;;8.52;;
26062;SDS011;13837;48.562;12.108;2022-10-17T09:06:42;9.53;;;7.70;;
26062;SDS011;13837;48.562;12.108;2022-10-17T09:12:01;8.48;;;7.68;;
26062;SDS011;13837;48.562;12.108;2022-10-17T09:20:07;8.35;;;6.70;;
26062;SDS011;13837;48.562;12.108;2022-10-17T09:23:04;8.43;;;6.65;;
26062;SDS011;13837;48.562;12.108;2022-10-17T09:25:27;14.48;;;6.55;;
26062;SDS011;13837;48.562;12.108;2022-10-17T09:28:10;9.02;;;5.68;;
26062;SDS011;13837;48.562;12.108;2022-10-17T09:30:43;10.63;;;5.53;;
26062;SDS011;13837;48.562;12.108;2022-10-17T09:33:20;7.80;;;5.40;;
26062;SDS011;13837;48.562;12.108;2022-10-17T09:35:52;6.05;;;5.22;;
26062;SDS011;13837;48.562;12.108;2022-10-17T09:38:21;5.40;;;4.90;;
26062;SDS011;13837;48.562;12.108;2022-10-17T09:40:59;8.02;;;5.00;;
26062;SDS011;13837;48.562;12.108;2022-10-17T09:43:26;6.28;;;4.90;;
26062;SDS011;13837;48.562;12.108;2022-10-17T09:46:29;6.68;;;4.95;;
26062;SDS011;13837;48.562;12.108;2022-10-17T09:48:51;6.97;;;4.95;;
26062;SDS011;13837;48.562;12.108;2022-10-17T09:51:21;6.45;;;5.30;;
26062;SDS011;13837;48.562;12.108;2022-10-17T09:53:48;8.15;;;5.60;;
26062;SDS011;13837;48.562;12.108;2022-10-17T09:56:19;6.43;;;4.65;;
26062;SDS011;13837;48.562;12.108;2022-10-17T09:58:46;4.85;;;4.45;;
26062;SDS011;13837;48.562;12.108;2022-10-17T10:01:22;10.88;;;5.15;;
26062;SDS011;13837;48.562;12.108;2022-10-17T10:06:31;6.00;;;4.70;;
26062;SDS011;13837;48.562;12.108;2022-10-17T10:08:56;6.22;;;4.45;;
26062;SDS011;13837;48.562;12.108;2022-10-17T10:14:20;8.60;;;4.95;;
26062;SDS011;13837;48.562;12.108;2022-10-17T10:17:04;5.13;;;4.53;;
26062;SDS011;13837;48.562;12.108;2022-10-17T10:19:49;4.50;;;4.10;;
26062;SDS011;13837;48.562;12.108;2022-10-17T10:22:17;4.93;;;4.30;;
26062;SDS011;13837;48.562;12.108;2022-10-17T10:24:44;6.38;;;3.88;;
26062;SDS011;13837;48.562;12.108;2022-10-17T10:27:13;7.55;;;4.22;;
26062;SDS011;13837;48.562;12.108;2022-10-17T10:29:50;7.20;;;4.10;;
26062;SDS011;13837;48.562;12.108;2022-10-17T10:35:02;4.32;;;3.95;;
26062;SDS011;13837;48.562;12.108;2022-10-17T10:37:49;6.68;;;3.60;;
26062;SDS011;13837;48.562;12.108;2022-10-17T10:40:22;4.28;;;3.67;;
26062;SDS011;13837;48.562;12.108;2022-10-17T10:42:58;3.70;;;3.40;;
26062;SDS011;13837;48.562;12.108;2022-10-17T10:45:25;4.10;;;3.20;;
26062;SDS011;13837;48.562;12.108;2022-10-17T10:48:18;4.40;;;2.85;;
26062;SDS011;13837;48.562;12.108;2022-10-17T10:50:49;4.85;;;3.00;;
26062;SDS011;13837;48.562;12.108;2022-10-17T10:53:37;7.60;;;4.43;;
26062;SDS011;13837;48.562;12.108;2022-10-17T11:17:37;7.65;;;3.58;;
26062;SDS011;13837;48.562;12.108;2022-10-17T11:20:35;5.50;;;3.47;;
26062;SDS011;13837;48.562;12.108;2022-10-17T11:26:18;5.03;;;3.20;;
26062;SDS011;13837;48.562;12.108;2022-10-17T11:28:53;3.45;;;3.13;;
26062;SDS011;13837;48.562;12.108;2022-10-17T11:31:27;4.53;;;4.13;;
26062;SDS011;13837;48.562;12.108;2022-10-17T11:34:00;7.30;;;5.38;;
26062;SDS011;13837;48.562;12.108;2022-10-17T11:36:31;6.38;;;3.17;;
26062;SDS011;13837;48.562;12.108;2022-10-17T11:39:05;4.93;;;4.05;;
26062;SDS011;13837;48.562;12.108;2022-10-17T11:41:42;3.28;;;3.08;;
26062;SDS011;13837;48.562;12.108;2022-10-17T11:46:53;4.40;;;4.00;;
26062;SDS011;13837;48.562;12.108;2022-10-17T11:49:28;7.38;;;3.42;;
26062;SDS011;13837;48.562;12.108;2022-10-17T12:07:01;7.57;;;3.95;;
26062;SDS011;13837;48.562;12.108;2022-10-17T12:12:02;6.15;;;3.78;;
26062;SDS011;13837;48.562;12.108;2022-10-17T12:14:44;6.75;;;4.72;;
26062;SDS011;13837;48.562;12.108;2022-10-17T12:25:22;5.95;;;3.15;;
26062;SDS011;13837;48.562;12.108;2022-10-17T12:33:52;4.45;;;2.88;;
26062;SDS011;13837;48.562;12.108;2022-10-17T12:39:41;5.68;;;3.58;;
26062;SDS011;13837;48.562;12.108;2022-10-17T12:52:14;3.85;;;3.10;;
26062;SDS011;13837;48.562;12.108;2022-10-17T13:00:33;6.50;;;3.40;;
26062;SDS011;13837;48.562;12.108;2022-10-17T13:03:48;5.45;;;3.70;;
26062;SDS011;13837;48.562;12.108;2022-10-17T13:05:58;4.55;;;3.40;;
26062;SDS011;13837;48.562;12.108;2022-10-17T13:08:33;3.45;;;2.85;;
26062;SDS011;13837;48.562;12.108;2022-10-17T13:11:03;4.78;;;3.22;;
26062;SDS011;13837;48.562;12.108;2022-10-17T13:13:44;4.72;;;3.17;;
26062;SDS011;13837;48.562;12.108;2022-10-17T13:19:40;3.88;;;3.40;;
26062;SDS011;13837;48.562;12.108;2022-10-17T13:22:21;4.80;;;3.37;;
26062;SDS011;13837;48.562;12.108;2022-10-17T13:24:48;6.78;;;3.58;;
26062;SDS011;13837;48.562;12.108;2022-10-17T13:29:55;4.25;;;3.50;;
26062;SDS011;13837;48.562;12.108;2022-10-17T13:32:23;3.63;;;3.33;;
26062;SDS011;13837;48.562;12.108;2022-10-17T13:35:07;5.83;;;4.60;;
26062;SDS011;13837;48.562;12.108;2022-10-17T13:37:34;5.63;;;3.88;;
26062;SDS011;13837;48.562;12.108;2022-10-17T13:40:01;5.30;;;3.45;;
26062;SDS011;13837;48.562;12.108;2022-10-17T13:42:28;4.75;;;4.13;;
26062;SDS011;13837;48.562;12.108;2022-10-17T13:45:00;4.03;;;3.42;;
26062;SDS011;13837;48.562;12.108;2022-10-17T13:47:27;4.55;;;3.38;;
26062;SDS011;13837;48.562;12.108;2022-10-17T13:49:56;7.25;;;3.58;;
26062;SDS011;13837;48.562;12.108;2022-10-17T13:52:25;4.50;;;3.92;;
26062;SDS011;13837;48.562;12.108;2022-10-17T13:54:53;4.75;;;3.60;;
26062;SDS011;13837;48.562;12.108;2022-10-17T13:57:22;4.95;;;3.65;;
26062;SDS011;13837;48.562;12.108;2022-10-17T13:59:51;3.95;;;3.45;;
26062;SDS011;13837;48.562;12.108;2022-10-17T14:02:20;4.72;;;3.42;;
26062;SDS011;13837;48.562;12.108;2022-10-17T14:07:25;4.65;;;3.38;;
26062;SDS011;13837;48.562;12.108;2022-10-17T14:09:57;7.30;;;3.55;;
26062;SDS011;13837;48.562;12.108;2022-10-17T14:12:23;4.90;;;3.63;;
26062;SDS011;13837;48.562;12.108;2022-10-17T14:14:49;3.78;;;3.40;;
26062;SDS011;13837;48.562;12.108;2022-10-17T14:17:24;4.78;;;3.22;;
26062;SDS011;13837;48.562;12.108;2022-10-17T14:19:52;7.07;;;3.67;;
26062;SDS011;13837;48.562;12.108;2022-10-17T14:24:46;5.05;;;3.50;;
26062;SDS011;13837;48.562;12.108;2022-10-17T14:29:56;4.80;;;3.28;;
26062;SDS011;13837;48.562;12.108;2022-10-17T14:32:27;9.27;;;3.60;;
26062;SDS011;13837;48.562;12.108;2022-10-17T14:34:57;4.88;;;3.05;;
26062;SDS011;13837;48.562;12.108;2022-10-17T14:37:41;4.68;;;3.50;;
26062;SDS011;13837;48.562;12.108;2022-10-17T14:40:13;3.85;;;3.13;;
26062;SDS011;13837;48.562;12.108;2022-10-17T14:42:44;7.32;;;3.72;;
26062;SDS011;13837;48.562;12.108;2022-10-17T14:45:11;4.47;;;3.35;;
26062;SDS011;13837;48.562;12.108;2022-10-17T14:48:08;5.57;;;3.60;;
26062;SDS011;13837;48.562;12.108;2022-10-17T14:53:37;6.30;;;3.50;;
26062;SDS011;13837;48.562;12.108;2022-10-17T14:56:04;5.47;;;3.40;;
26062;SDS011;13837;48.562;12.108;2022-10-17T14:58:46;4.50;;;3.47;;
26062;SDS011;13837;48.562;12.108;2022-10-17T15:01:12;6.03;;;3.83;;
26062;SDS011;13837;48.562;12.108;2022-10-17T15:03:37;3.72;;;3.38;;
26062;SDS011;13837;48.562;12.108;2022-10-17T15:06:20;4.88;;;3.65;;
26062;SDS011;13837;48.562;12.108;2022-10-17T15:08:51;6.55;;;3.58;;
26062;SDS011;13837;48.562;12.108;2022-10-17T15:11:17;5.93;;;3.83;;
26062;SDS011;13837;48.562;12.108;2022-10-17T15:13:42;8.77;;;3.53;;
26062;SDS011;13837;48.562;12.108;2022-10-17T15:16:23;4.72;;;3.72;;
26062;SDS011;13837;48.562;12.108;2022-10-17T15:18:50;15.95;;;5.22;;
26062;SDS011;13837;48.562;12.108;2022-10-17T15:21:18;22.27;;;6.15;;
26062;SDS011;13837;48.562;12.108;2022-10-17T15:23:45;8.38;;;4.50;;
26062;SDS011;13837;48.562;12.108;2022-10-17T15:26:18;11.73;;;4.97;;
26062;SDS011;13837;48.562;12.108;2022-10-17T15:28:46;9.13;;;5.18;;
26062;SDS011;13837;48.562;12.108;2022-10-17T15:31:14;10.45;;;4.18;;
26062;SDS011;13837;48.562;12.108;2022-10-17T15:33:41;18.88;;;6.82;;
26062;SDS011;13837;48.562;12.108;2022-10-17T15:36:26;9.45;;;5.10;;
26062;SDS011;13837;48.562;12.108;2022-10-17T15:38:59;8.70;;;4.20;;
26062;SDS011;13837;48.562;12.108;2022-10-17T15:41:26;6.45;;;4.70;;
26062;SDS011;13837;48.562;12.108;2022-10-17T15:43:53;12.07;;;4.93;;
26062;SDS011;13837;48.562;12.108;2022-10-17T15:46:23;6.40;;;4.28;;
26062;SDS011;13837;48.562;12.108;2022-10-17T15:48:54;11.25;;;4.68;;
26062;SDS011;13837;48.562;12.108;2022-10-17T15:51:21;7.95;;;4.43;;
26062;SDS011;13837;48.562;12.108;2022-10-17T15:53:47;10.65;;;4.40;;
26062;SDS011;13837;48.562;12.108;2022-10-17T15:56:18;13.75;;;5.25;;
26062;SDS011;13837;48.562;12.108;2022-10-17T15:58:48;11.15;;;5.22;;
26062;SDS011;13837;48.562;12.108;2022-10-17T16:01:25;8.25;;;4.70;;
26062;SDS011;13837;48.562;12.108;2022-10-17T16:07:40;9.50;;;5.47;;
26062;SDS011;13837;48.562;12.108;2022-10-17T16:25:35;5.28;;;4.65;;
26062;SDS011;13837;48.562;12.108;2022-10-17T16:42:48;11.77;;;6.32;;
26062;SDS011;13837;48.562;12.108;2022-10-17T16:45:15;10.60;;;5.93;;
26062;SDS011;13837;48.562;12.108;2022-10-17T16:47:46;9.52;;;5.65;;
26062;SDS011;13837;48.562;12.108;2022-10-17T16:50:14;9.90;;;5.80;;
26062;SDS011;13837;48.562;12.108;2022-10-17T16:52:45;11.13;;;5.25;;
26062;SDS011;13837;48.562;12.108;2022-10-17T16:55:12;9.25;;;5.70;;
26062;SDS011;13837;48.562;12.108;2022-10-17T16:57:43;10.02;;;5.82;;
26062;SDS011;13837;48.562;12.108;2022-10-17T17:00:26;10.48;;;5.30;;
26062;SDS011;13837;48.562;12.108;2022-10-17T17:02:53;10.73;;;5.38;;
26062;SDS011;13837;48.562;12.108;2022-10-17T17:05:19;14.43;;;6.53;;
26062;SDS011;13837;48.562;12.108;2022-10-17T17:07:54;11.60;;;7.30;;
26062;SDS011;13837;48.562;12.108;2022-10-17T17:10:21;8.55;;;6.32;;
26062;SDS011;13837;48.562;12.108;2022-10-17T17:48:24;12.23;;;7.97;;
26062;SDS011;13837;48.562;12.108;2022-10-17T17:50:50;14.75;;;8.00;;
26062;SDS011;13837;48.562;12.108;2022-10-17T17:56:12;11.80;;;6.45;;
26062;SDS011;13837;48.562;12.108;2022-10-17T17:58:45;11.55;;;7.05;;
26062;SDS011;13837;48.562;12.108;2022-10-17T18:01:19;10.52;;;7.47;;
26062;SDS011;13837;48.562;12.108;2022-10-17T18:03:53;10.32;;;6.90;;
26062;SDS011;13837;48.562;12.108;2022-10-17T18:06:25;11.43;;;7.13;;
26062;SDS011;13837;48.562;12.108;2022-10-17T18:08:56;13.80;;;8.02;;
26062;SDS011;13837;48.562;12.108;2022-10-17T18:11:42;10.93;;;7.72;;
26062;SDS011;13837;48.562;12.108;2022-10-17T18:14:11;15.23;;;8.73;;
26062;SDS011;13837;48.562;12.108;2022-10-17T18:16:39;16.17;;;8.90;;
26062;SDS011;13837;48.562;12.108;2022-10-17T18:19:09;12.80;;;8.70;;
26062;SDS011;13837;48.562;12.108;2022-10-17T18:21:38;10.75;;;9.15;;
26062;SDS011;13837;48.562;12.108;2022-10-17T18:24:08;18.88;;;9.32;;
26062;SDS011;13837;48.562;12.108;2022-10-17T18:26:40;12.10;;;8.95;;
26062;SDS011;13837;48.562;12.108;2022-10-17T18:29:10;13.70;;;8.65;;
26062;SDS011;13837;48.562;12.108;2022-10-17T18:31:40;15.98;;;8.75;;
26062;SDS011;13837;48.562;12.108;2022-10-17T18:34:09;13.27;;;8.63;;
26062;SDS011;13837;48.562;12.108;2022-10-17T18:44:23;14.77;;;8.85;;
26062;SDS011;13837;48.562;12.108;2022-10-17T18:47:14;9.18;;;7.70;;
26062;SDS011;13837;48.562;12.108;2022-10-17T19:06:39;21.50;;;14.80;;